Time;durP1;ratioP1;P1;durP2;ratioP2;P2;SDS_P1;SDS_P2;PMS_P1;PMS_P2;Temp;Humidity;BMP_temperature;BMP_pressure;BME280_temperature;BME280_humidity;BME280_pressure;Samples;Min_cycle;Max_cycle;Signal;HPM_P1;HPM_P2
2023/11/13 00:01:14;;;;;;;4.97;2.93;;;5.50;99.90;;;;;;4229777;28;20832;-83
2023/11/13 00:03:16;;;;;;;7.20;3.13;;;5.80;99.90;;;;;;4225545;28;20450;-83
2023/11/13 00:05:18;;;;;;;5.90;3.20;;;5.50;99.90;;;;;;4224032;28;20463;-83
2023/11/13 00:07:21;;;;;;;6.70;3.40;;;5.30;99.90;;;;;;4223817;28;20447;-83
2023/11/13 00:09:23;;;;;;;6.43;2.77;;;5.60;99.90;;;;;;4227990;28;20467;-83
2023/11/13 00:11:25;;;;;;;9.57;3.07;;;5.50;99.90;;;;;;4224647;28;20504;-84
2023/11/13 00:13:29;;;;;;;5.87;3.40;;;5.60;99.90;;;;;;4221341;28;20447;-83
2023/11/13 00:15:32;;;;;;;6.03;3.27;;;5.50;99.90;;;;;;4225732;28;20475;-82
2023/11/13 00:17:33;;;;;;;8.13;3.23;;;5.10;99.90;;;;;;4225180;28;20201;-85
2023/11/13 00:19:35;;;;;;;5.73;3.20;;;5.60;99.90;;;;;;4226005;28;20445;-84
2023/11/13 00:21:37;;;;;;;6.33;3.00;;;5.50;99.90;;;;;;4218857;28;20477;-84
2023/11/13 00:23:38;;;;;;;8.03;3.10;;;5.60;99.90;;;;;;4221301;28;20958;-84
2023/11/13 00:25:40;;;;;;;3.50;2.77;;;5.50;99.90;;;;;;4225352;28;20481;-82
2023/11/13 00:27:42;;;;;;;4.47;2.83;;;5.40;99.90;;;;;;4227065;28;20207;-81
2023/11/13 00:29:45;;;;;;;5.33;3.30;;;5.70;99.90;;;;;;4225475;28;20888;-82
2023/11/13 00:31:46;;;;;;;7.57;3.07;;;5.40;99.90;;;;;;4227621;28;21089;-81
2023/11/13 00:33:49;;;;;;;6.27;2.83;;;5.30;99.90;;;;;;4218950;28;21130;-82
2023/11/13 00:35:51;;;;;;;6.30;3.10;;;5.30;99.90;;;;;;4220983;28;20466;-81
2023/11/13 00:37:57;;;;;;;6.00;3.53;;;5.30;99.90;;;;;;4226724;28;20959;-82
2023/11/13 00:39:59;;;;;;;10.23;3.00;;;5.20;99.90;;;;;;4225906;28;20445;-82
2023/11/13 00:42:01;;;;;;;5.30;3.30;;;5.20;99.90;;;;;;4221015;28;20507;-84
2023/11/13 00:44:03;;;;;;;7.00;3.30;;;5.20;99.90;;;;;;4221385;28;20462;-84
2023/11/13 00:46:07;;;;;;;5.07;3.40;;;5.10;99.90;;;;;;4220662;28;20471;-84
2023/11/13 00:48:09;;;;;;;5.33;2.97;;;5.10;99.90;;;;;;4225132;28;20454;-84
2023/11/13 00:50:11;;;;;;;6.60;3.10;;;5.00;99.90;;;;;;4221596;28;20493;-84
2023/11/13 00:52:16;;;;;;;6.87;3.33;;;5.00;99.90;;;;;;4217328;28;20443;-83
2023/11/13 00:54:18;;;;;;;6.73;3.70;;;5.50;99.90;;;;;;4227735;28;20450;-84
2023/11/13 00:56:19;;;;;;;5.23;3.07;;;5.00;99.90;;;;;;4214548;28;20481;-84
2023/11/13 00:58:24;;;;;;;7.67;3.40;;;5.00;99.90;;;;;;4217239;28;20446;-83
2023/11/13 01:00:26;;;;;;;4.67;2.90;;;5.00;99.90;;;;;;4228899;28;20240;-83
2023/11/13 01:02:33;;;;;;;4.57;3.00;;;4.90;99.90;;;;;;4221909;28;20460;-84
2023/11/13 01:04:35;;;;;;;6.20;2.90;;;5.10;99.90;;;;;;4223550;28;20456;-84
2023/11/13 01:06:36;;;;;;;5.43;3.20;;;4.90;99.90;;;;;;4219514;28;21010;-83
2023/11/13 01:08:38;;;;;;;5.20;3.03;;;5.50;99.90;;;;;;4224361;28;20481;-83
2023/11/13 01:10:39;;;;;;;4.83;3.07;;;4.80;99.90;;;;;;4223616;28;20457;-84
2023/11/13 01:12:43;;;;;;;5.43;3.23;;;4.70;99.90;;;;;;4223293;28;20438;-83
2023/11/13 01:14:44;;;;;;;6.53;3.10;;;4.70;99.90;;;;;;4223178;28;20462;-83
2023/11/13 01:16:49;;;;;;;4.70;3.00;;;4.70;99.90;;;;;;4227912;28;20455;-83
2023/11/13 01:18:55;;;;;;;7.47;3.47;;;4.60;99.90;;;;;;4229752;28;20460;-83
2023/11/13 01:20:59;;;;;;;6.33;3.60;;;4.60;99.90;;;;;;4227927;28;20454;-84
2023/11/13 01:23:01;;;;;;;5.97;3.23;;;4.60;99.90;;;;;;4229170;28;20496;-83
2023/11/13 01:25:03;;;;;;;5.50;3.27;;;4.50;99.90;;;;;;4227426;28;20512;-84
2023/11/13 01:27:05;;;;;;;5.80;2.90;;;4.50;99.90;;;;;;4226513;28;20555;-84
2023/11/13 01:29:07;;;;;;;6.80;3.60;;;4.50;99.90;;;;;;4232206;28;20515;-84
2023/11/13 01:31:10;;;;;;;6.23;3.33;;;4.50;99.90;;;;;;4223383;28;20446;-84
2023/11/13 01:33:12;;;;;;;6.27;2.97;;;4.50;99.90;;;;;;4232595;28;20448;-84
2023/11/13 01:35:16;;;;;;;5.77;3.17;;;4.40;99.90;;;;;;4222297;28;20555;-83
2023/11/13 01:37:19;;;;;;;6.97;3.07;;;4.40;99.90;;;;;;4222949;28;20569;-84
2023/11/13 01:39:21;;;;;;;5.80;3.00;;;4.40;99.90;;;;;;4222859;28;20467;-84
2023/11/13 01:41:26;;;;;;;5.93;3.03;;;4.40;99.90;;;;;;4227232;28;20539;-84
2023/11/13 01:43:26;;;;;;;6.87;3.53;;;4.40;99.90;;;;;;4230716;28;20438;-84
2023/11/13 01:45:28;;;;;;;7.50;3.73;;;4.40;99.90;;;;;;4232992;28;20473;-84
2023/11/13 01:47:29;;;;;;;7.80;3.80;;;4.40;99.90;;;;;;4226655;28;20207;-84
2023/11/13 01:49:32;;;;;;;7.53;3.87;;;4.90;99.90;;;;;;4228548;28;20473;-84
2023/11/13 01:51:35;;;;;;;6.67;3.67;;;4.50;99.90;;;;;;4230083;28;20460;-83
2023/11/13 01:53:37;;;;;;;4.73;3.43;;;4.50;99.90;;;;;;4225001;27;20454;-84
2023/11/13 01:55:39;;;;;;;6.17;3.20;;;4.50;99.90;;;;;;4226431;28;20457;-84
2023/11/13 01:57:43;;;;;;;8.10;3.70;;;4.40;99.90;;;;;;4223036;28;20906;-84
2023/11/13 01:59:45;;;;;;;5.73;3.27;;;4.40;99.90;;;;;;4222016;28;20437;-84
2023/11/13 02:01:46;;;;;;;5.77;3.53;;;4.40;99.90;;;;;;4231453;28;20998;-84
2023/11/13 02:03:49;;;;;;;8.37;3.50;;;4.00;99.90;;;;;;4228091;28;20485;-84
2023/11/13 02:05:51;;;;;;;7.30;3.50;;;4.40;99.90;;;;;;4229278;28;20575;-84
2023/11/13 02:07:54;;;;;;;7.17;3.70;;;4.40;99.90;;;;;;4221084;28;20466;-84
2023/11/13 02:09:56;;;;;;;5.80;3.37;;;4.30;99.90;;;;;;4231618;28;20479;-84
2023/11/13 02:11:58;;;;;;;8.43;3.70;;;4.40;99.90;;;;;;4227533;28;20460;-83
2023/11/13 02:14:00;;;;;;;7.90;3.60;;;4.40;99.90;;;;;;4231003;28;20462;-84
2023/11/13 02:16:02;;;;;;;6.87;3.80;;;4.40;99.90;;;;;;4228436;28;20468;-83
2023/11/13 02:18:06;;;;;;;7.17;4.10;;;4.40;99.90;;;;;;4227043;28;20490;-82
2023/11/13 02:20:09;;;;;;;6.67;3.33;;;4.40;99.90;;;;;;4233306;28;20475;-81
2023/11/13 02:22:10;;;;;;;7.30;3.20;;;4.40;99.90;;;;;;4224112;28;20516;-82
2023/11/13 02:24:15;;;;;;;6.60;3.77;;;4.40;99.90;;;;;;4221291;27;20771;-82
2023/11/13 02:26:17;;;;;;;7.60;3.67;;;4.30;99.90;;;;;;4228135;28;20222;-83
2023/11/13 02:28:19;;;;;;;8.17;4.23;;;4.30;99.90;;;;;;4221952;28;20461;-84
2023/11/13 02:30:23;;;;;;;7.67;4.13;;;4.00;99.90;;;;;;4226087;28;20483;-84
2023/11/13 02:32:25;;;;;;;7.77;4.20;;;4.30;99.90;;;;;;4225434;28;20523;-84
2023/11/13 02:34:26;;;;;;;6.37;3.97;;;4.20;99.90;;;;;;4223934;28;20516;-84
2023/11/13 02:36:28;;;;;;;8.27;4.27;;;4.20;99.90;;;;;;4229066;28;20514;-84
2023/11/13 02:38:30;;;;;;;11.23;4.07;;;4.30;99.90;;;;;;4223316;28;20211;-84
2023/11/13 02:40:33;;;;;;;5.67;4.00;;;4.20;99.90;;;;;;4222869;28;20453;-84
2023/11/13 02:42:34;;;;;;;7.30;4.10;;;4.20;99.90;;;;;;4226980;28;20442;-84
2023/11/13 02:44:36;;;;;;;9.23;3.87;;;4.70;99.90;;;;;;4229454;28;20436;-84
2023/11/13 02:46:39;;;;;;;6.83;4.07;;;4.20;99.90;;;;;;4225161;28;20475;-84
2023/11/13 02:48:41;;;;;;;7.17;4.27;;;4.20;99.90;;;;;;4223618;28;20456;-84
2023/11/13 02:50:43;;;;;;;7.57;3.67;;;4.40;99.90;;;;;;4224759;28;20483;-84
2023/11/13 02:52:45;;;;;;;6.80;3.53;;;4.10;99.90;;;;;;4218836;28;20464;-83
2023/11/13 02:54:48;;;;;;;8.10;3.60;;;4.10;99.90;;;;;;4225395;28;20483;-84
2023/11/13 02:56:50;;;;;;;8.07;3.90;;;4.10;99.90;;;;;;4222183;28;20457;-83
2023/11/13 02:58:53;;;;;;;8.10;4.30;;;4.00;99.90;;;;;;4219964;28;20787;-84
2023/11/13 03:00:55;;;;;;;8.73;4.00;;;3.30;99.90;;;;;;4221653;28;20790;-84
2023/11/13 03:03:00;;;;;;;6.87;3.30;;;4.00;99.90;;;;;;4227947;28;20444;-84
2023/11/13 03:05:02;;;;;;;7.07;3.67;;;4.00;99.90;;;;;;4220995;28;20477;-84
2023/11/13 03:07:04;;;;;;;7.07;3.60;;;3.90;99.90;;;;;;4222448;28;20444;-84
2023/11/13 03:09:06;;;;;;;6.23;3.43;;;3.90;99.90;;;;;;4220799;28;20461;-83
2023/11/13 03:11:08;;;;;;;5.40;3.03;;;4.40;99.90;;;;;;4227250;27;20828;-84
2023/11/13 03:13:11;;;;;;;9.27;4.10;;;3.90;99.90;;;;;;4224006;28;20452;-83
2023/11/13 03:15:13;;;;;;;6.63;3.63;;;3.90;99.90;;;;;;4224260;28;20949;-82
2023/11/13 03:17:15;;;;;;;8.20;4.07;;;3.80;99.90;;;;;;4221783;28;20454;-82
2023/11/13 03:19:17;;;;;;;6.90;3.53;;;3.90;99.90;;;;;;4219630;28;20965;-82
2023/11/13 03:21:19;;;;;;;7.57;3.50;;;3.80;99.90;;;;;;4222781;28;20937;-82
2023/11/13 03:23:21;;;;;;;7.30;3.20;;;3.80;99.90;;;;;;4219455;28;20453;-81
2023/11/13 03:25:23;;;;;;;6.97;3.37;;;3.80;99.90;;;;;;4218707;28;20460;-82
2023/11/13 03:27:26;;;;;;;8.50;3.50;;;3.80;99.90;;;;;;4228256;28;20513;-81
2023/11/13 03:29:29;;;;;;;7.63;3.17;;;3.70;99.90;;;;;;4226525;28;20977;-81
2023/11/13 03:31:32;;;;;;;5.97;3.30;;;3.70;99.90;;;;;;4222381;28;20449;-81
2023/11/13 03:33:34;;;;;;;7.97;3.70;;;3.70;99.90;;;;;;4219837;28;20957;-81
2023/11/13 03:35:36;;;;;;;6.73;3.37;;;3.70;99.90;;;;;;4223614;28;20535;-81
2023/11/13 03:37:38;;;;;;;8.00;3.63;;;3.70;99.90;;;;;;4226921;28;20450;-83
2023/11/13 03:39:40;;;;;;;6.87;3.97;;;3.70;99.90;;;;;;4221421;28;20444;-81
2023/11/13 03:41:41;;;;;;;7.07;3.83;;;3.90;99.90;;;;;;4223806;28;20477;-82
2023/11/13 03:43:43;;;;;;;5.97;3.33;;;3.60;99.90;;;;;;4223306;28;20464;-82
2023/11/13 03:45:46;;;;;;;6.80;3.83;;;3.60;99.90;;;;;;4227956;28;20226;-82
2023/11/13 03:47:49;;;;;;;7.67;3.40;;;4.00;99.90;;;;;;4220445;28;20454;-82
2023/11/13 03:49:50;;;;;;;4.97;3.20;;;3.60;99.90;;;;;;4223147;28;20490;-84
2023/11/13 03:51:51;;;;;;;6.93;3.50;;;3.50;99.90;;;;;;4225106;28;20447;-84
2023/11/13 03:53:54;;;;;;;7.27;3.40;;;3.50;99.90;;;;;;4223594;28;20466;-83
2023/11/13 03:55:56;;;;;;;6.47;3.07;;;3.10;99.90;;;;;;4221042;28;20472;-84
2023/11/13 03:57:58;;;;;;;6.40;3.47;;;3.50;99.90;;;;;;4228109;28;20441;-83
2023/11/13 04:00:00;;;;;;;6.63;3.20;;;3.40;99.90;;;;;;4217977;28;20967;-84
2023/11/13 04:02:03;;;;;;;4.93;3.17;;;3.40;99.90;;;;;;4227427;28;20446;-84
2023/11/13 04:04:05;;;;;;;9.47;3.80;;;3.40;99.90;;;;;;4218860;28;20448;-83
2023/11/13 04:06:07;;;;;;;7.30;3.40;;;3.30;99.90;;;;;;4228748;28;20461;-83
2023/11/13 04:08:08;;;;;;;6.40;3.40;;;3.40;99.90;;;;;;4221782;28;20443;-84
2023/11/13 04:10:13;;;;;;;6.77;3.77;;;3.30;99.90;;;;;;4218157;28;20513;-83
2023/11/13 04:12:15;;;;;;;8.67;3.30;;;3.30;99.90;;;;;;4227077;28;20504;-84
2023/11/13 04:14:17;;;;;;;8.30;3.60;;;3.40;99.90;;;;;;4221285;28;20444;-82
2023/11/13 04:16:19;;;;;;;5.07;3.17;;;3.40;99.90;;;;;;4226183;28;20460;-83
2023/11/13 04:18:23;;;;;;;6.33;3.70;;;3.30;99.90;;;;;;4221472;28;20443;-84
2023/11/13 04:20:25;;;;;;;6.77;3.50;;;3.30;99.90;;;;;;4218132;28;20936;-84
2023/11/13 04:22:28;;;;;;;7.23;3.73;;;3.30;99.90;;;;;;4218273;28;20473;-84
2023/11/13 04:24:30;;;;;;;8.53;3.60;;;3.30;99.90;;;;;;4221823;28;20459;-84
2023/11/13 04:26:32;;;;;;;5.70;3.43;;;3.40;99.90;;;;;;4220384;28;20504;-84
2023/11/13 04:28:36;;;;;;;7.10;3.70;;;3.20;99.90;;;;;;4219329;28;20450;-84
2023/11/13 04:30:38;;;;;;;6.27;3.60;;;3.20;99.90;;;;;;4218011;28;21044;-84
2023/11/13 04:32:41;;;;;;;7.23;3.73;;;3.20;99.90;;;;;;4218928;28;20463;-83
2023/11/13 04:34:45;;;;;;;6.00;3.53;;;3.20;99.90;;;;;;4219135;28;20510;-84
2023/11/13 04:36:47;;;;;;;6.13;3.80;;;3.20;99.90;;;;;;4219893;28;20457;-83
2023/11/13 04:38:49;;;;;;;6.00;3.60;;;3.20;99.90;;;;;;4221977;28;20474;-83
2023/11/13 04:40:51;;;;;;;4.77;3.20;;;3.10;99.90;;;;;;4220133;28;20437;-84
2023/11/13 04:42:53;;;;;;;5.87;3.93;;;3.40;99.90;;;;;;4220248;28;20455;-84
2023/11/13 04:44:55;;;;;;;7.40;3.83;;;3.10;99.90;;;;;;4222829;28;20491;-84
2023/11/13 04:46:57;;;;;;;7.20;4.10;;;3.10;99.90;;;;;;4220507;28;20447;-83
2023/11/13 04:48:59;;;;;;;7.50;4.40;;;2.40;99.90;;;;;;4225554;28;20440;-83
2023/11/13 04:51:02;;;;;;;8.87;5.47;;;3.10;99.90;;;;;;4223261;28;20471;-84
2023/11/13 04:53:04;;;;;;;10.80;5.70;;;3.10;99.90;;;;;;4217439;28;20518;-84
2023/11/13 04:55:09;;;;;;;9.73;4.80;;;3.10;99.90;;;;;;4230367;28;20463;-84
2023/11/13 04:57:12;;;;;;;10.00;4.60;;;3.10;99.90;;;;;;4218292;28;20958;-83
2023/11/13 04:59:14;;;;;;;8.47;4.37;;;3.00;99.90;;;;;;4216890;28;20454;-82
2023/11/13 05:01:17;;;;;;;11.50;4.60;;;3.00;99.90;;;;;;4230492;28;20441;-81
2023/11/13 05:03:19;;;;;;;8.00;4.53;;;3.00;99.90;;;;;;4223811;28;20452;-82
2023/11/13 05:05:20;;;;;;;8.33;4.40;;;3.00;99.90;;;;;;4224415;28;20462;-82
2023/11/13 05:07:25;;;;;;;7.20;4.27;;;3.00;99.90;;;;;;4224906;28;20452;-81
2023/11/13 05:09:28;;;;;;;7.80;4.90;;;3.30;99.90;;;;;;4219382;28;20217;-80
2023/11/13 05:11:30;;;;;;;9.10;4.40;;;3.10;99.90;;;;;;4217164;28;21029;-78
2023/11/13 05:13:32;;;;;;;7.60;4.20;;;3.00;99.90;;;;;;4216698;28;20462;-78
2023/11/13 05:15:34;;;;;;;7.30;4.07;;;3.00;99.90;;;;;;4220951;28;20511;-78
2023/11/13 05:17:38;;;;;;;7.07;4.30;;;3.00;99.90;;;;;;4217368;28;20452;-79
2023/11/13 05:19:40;;;;;;;7.20;4.40;;;2.40;99.90;;;;;;4218343;28;20459;-78
2023/11/13 05:21:41;;;;;;;10.53;5.00;;;3.00;99.90;;;;;;4221059;28;20466;-77
2023/11/13 05:23:44;;;;;;;9.63;4.73;;;3.00;99.90;;;;;;4216139;28;20443;-78
2023/11/13 05:25:46;;;;;;;7.67;4.50;;;3.40;99.90;;;;;;4216698;28;20278;-78
2023/11/13 05:27:48;;;;;;;11.40;4.97;;;3.00;99.90;;;;;;4220961;28;20455;-78
2023/11/13 05:29:50;;;;;;;9.37;4.40;;;3.60;99.90;;;;;;4215184;28;20994;-78
2023/11/13 05:31:52;;;;;;;9.30;4.87;;;3.00;99.90;;;;;;4215892;28;20992;-79
2023/11/13 05:33:54;;;;;;;11.40;5.17;;;2.90;99.90;;;;;;4217356;28;20447;-78
2023/11/13 05:35:56;;;;;;;16.17;7.00;;;2.90;99.90;;;;;;4219351;28;20466;-78
2023/11/13 05:38:03;;;;;;;13.63;7.40;;;2.90;99.90;;;;;;4217239;28;20459;-78
2023/11/13 05:40:07;;;;;;;10.53;5.87;;;2.90;99.90;;;;;;4216186;28;20551;-77
2023/11/13 05:42:09;;;;;;;12.03;6.70;;;2.90;99.90;;;;;;4215872;28;20451;-78
2023/11/13 05:44:11;;;;;;;9.80;5.57;;;2.90;99.90;;;;;;4212894;28;20938;-78
2023/11/13 05:46:16;;;;;;;13.97;5.67;;;2.90;99.90;;;;;;4215980;28;20462;-78
2023/11/13 05:48:19;;;;;;;9.93;5.10;;;2.90;99.90;;;;;;4222117;28;20464;-78
2023/11/13 05:50:21;;;;;;;11.53;5.33;;;2.90;99.90;;;;;;4214847;28;20472;-78
2023/11/13 05:52:22;;;;;;;8.53;5.17;;;3.20;99.90;;;;;;4221457;28;20461;-78
2023/11/13 05:54:24;;;;;;;11.03;5.80;;;2.90;99.90;;;;;;4215367;28;20555;-77
2023/11/13 05:56:28;;;;;;;12.43;5.90;;;2.90;99.90;;;;;;4220370;28;20462;-78
2023/11/13 05:58:30;;;;;;;15.23;7.63;;;2.90;99.90;;;;;;4219297;28;20454;-80
2023/11/13 06:00:32;;;;;;;12.93;6.47;;;3.00;99.90;;;;;;4222791;28;20488;-81
2023/11/13 06:02:34;;;;;;;13.07;7.23;;;3.00;99.90;;;;;;4215092;28;20450;-80
2023/11/13 06:04:36;;;;;;;14.13;7.57;;;3.00;99.90;;;;;;4221417;28;20442;-80
2023/11/13 06:06:38;;;;;;;11.10;6.00;;;3.00;99.90;;;;;;4218412;28;20563;-80
2023/11/13 06:08:40;;;;;;;10.00;6.07;;;3.10;99.90;;;;;;4222172;28;20438;-80
2023/11/13 06:10:42;;;;;;;13.50;6.60;;;3.10;99.90;;;;;;4223105;28;20494;-79
2023/11/13 06:12:45;;;;;;;12.60;6.20;;;3.10;99.90;;;;;;4218913;28;20447;-80
2023/11/13 06:14:48;;;;;;;12.03;5.90;;;3.10;99.90;;;;;;4218571;28;20492;-80
2023/11/13 06:16:49;;;;;;;10.70;6.27;;;3.10;99.90;;;;;;4219451;28;20852;-80
2023/11/13 06:18:52;;;;;;;10.93;6.00;;;3.20;99.90;;;;;;4218470;28;20507;-79
2023/11/13 06:20:55;;;;;;;10.00;5.77;;;3.10;99.90;;;;;;4229423;28;20212;-80
2023/11/13 06:22:57;;;;;;;12.93;6.57;;;3.10;99.90;;;;;;4220727;28;20889;-79
2023/11/13 06:24:59;;;;;;;11.93;6.27;;;3.10;99.90;;;;;;4228337;28;20468;-80
2023/11/13 06:27:02;;;;;;;12.77;7.20;;;3.10;99.90;;;;;;4225421;28;20455;-80
2023/11/13 06:29:05;;;;;;;13.17;6.90;;;3.20;99.90;;;;;;4224301;28;20928;-81
2023/11/13 06:31:07;;;;;;;18.13;7.50;;;3.20;99.90;;;;;;4217334;28;20479;-81
2023/11/13 06:33:09;;;;;;;13.80;6.97;;;3.20;99.90;;;;;;4219048;28;20455;-81
2023/11/13 06:35:11;;;;;;;12.83;6.80;;;3.20;99.90;;;;;;4224932;28;20465;-80
2023/11/13 06:37:13;;;;;;;13.43;7.47;;;3.30;99.90;;;;;;4225595;28;20455;-81
2023/11/13 06:39:17;;;;;;;13.83;6.77;;;3.20;99.90;;;;;;4226997;28;21025;-79
2023/11/13 06:41:19;;;;;;;13.90;7.33;;;3.20;99.90;;;;;;4228577;28;20444;-80
2023/11/13 06:43:24;;;;;;;14.67;6.97;;;3.20;99.90;;;;;;4226902;28;20514;-80
2023/11/13 06:45:28;;;;;;;16.03;7.60;;;3.30;99.90;;;;;;4230711;28;20495;-80
2023/11/13 06:47:29;;;;;;;12.90;7.10;;;3.20;99.90;;;;;;4226272;28;20450;-80
2023/11/13 06:49:31;;;;;;;14.60;7.97;;;3.30;99.90;;;;;;4229000;28;20520;-85
2023/11/13 06:51:33;;;;;;;13.63;7.17;;;3.30;99.90;;;;;;4231142;28;20221;-82
2023/11/13 06:53:35;;;;;;;15.80;7.43;;;3.70;99.90;;;;;;4228170;28;20455;-83
2023/11/13 06:55:38;;;;;;;12.17;7.53;;;3.30;99.90;;;;;;4222761;28;20479;-83
2023/11/13 06:57:41;;;;;;;14.63;7.80;;;3.30;99.90;;;;;;4221012;27;20448;-84
2023/11/13 06:59:43;;;;;;;14.57;7.73;;;3.30;99.90;;;;;;4214634;28;20535;-84
2023/11/13 07:01:48;;;;;;;14.17;7.67;;;3.30;99.90;;;;;;4223781;28;20523;-84
2023/11/13 07:03:50;;;;;;;15.10;7.67;;;3.40;99.90;;;;;;4224651;28;20431;-84
2023/11/13 07:05:53;;;;;;;14.47;7.93;;;3.40;99.90;;;;;;4219997;28;20476;-84
2023/11/13 07:07:57;;;;;;;17.17;7.40;;;4.20;99.90;;;;;;4220663;28;20499;-84
2023/11/13 07:10:01;;;;;;;13.73;7.13;;;4.20;99.90;;;;;;4225170;28;20452;-84
2023/11/13 07:12:04;;;;;;;13.27;7.27;;;3.40;99.90;;;;;;4220526;28;20471;-84
2023/11/13 07:14:08;;;;;;;14.90;7.97;;;3.40;99.90;;;;;;4222040;28;20915;-84
2023/11/13 07:16:10;;;;;;;15.97;8.07;;;3.50;99.90;;;;;;4224954;28;20560;-83
2023/11/13 07:18:14;;;;;;;15.97;7.67;;;3.50;99.90;;;;;;4226419;28;20451;-84
2023/11/13 07:20:19;;;;;;;15.50;8.23;;;3.50;99.90;;;;;;4224065;28;20895;-84
2023/11/13 07:22:22;;;;;;;18.60;8.33;;;3.90;99.90;;;;;;4222040;27;20448;-83
2023/11/13 07:24:24;;;;;;;19.93;8.53;;;3.60;99.90;;;;;;4218596;28;20440;-83
2023/11/13 07:26:27;;;;;;;20.67;8.37;;;3.60;99.90;;;;;;4225996;27;20554;-82
2023/11/13 07:28:29;;;;;;;17.33;9.13;;;3.80;99.90;;;;;;4220679;27;20456;-85
2023/11/13 07:30:33;;;;;;;15.27;8.50;;;3.60;99.90;;;;;;4224761;28;20977;-83
2023/11/13 07:32:35;;;;;;;17.30;8.97;;;3.70;99.90;;;;;;4222617;28;20449;-83
2023/11/13 07:34:38;;;;;;;19.90;9.40;;;3.70;99.90;;;;;;4218323;28;20537;-82
2023/11/13 07:36:40;;;;;;;16.63;8.67;;;3.70;99.90;;;;;;4228043;28;20461;-83
2023/11/13 07:38:42;;;;;;;17.77;9.03;;;3.70;99.90;;;;;;4226330;28;20467;-84
2023/11/13 07:40:44;;;;;;;17.83;9.10;;;3.80;99.90;;;;;;4222305;28;20541;-83
2023/11/13 07:42:46;;;;;;;18.30;9.63;;;3.80;99.90;;;;;;4219597;28;21018;-84
2023/11/13 07:44:49;;;;;;;19.17;9.80;;;3.90;99.90;;;;;;4219976;28;20453;-84
2023/11/13 07:46:52;;;;;;;20.80;9.63;;;3.90;99.90;;;;;;4216682;28;20531;-84
2023/11/13 07:48:54;;;;;;;18.80;10.17;;;4.00;99.90;;;;;;4217318;28;20832;-83
2023/11/13 07:50:57;;;;;;;20.07;10.03;;;4.00;99.90;;;;;;4220857;28;20564;-82
2023/11/13 07:52:59;;;;;;;16.03;8.93;;;4.10;99.90;;;;;;4213922;28;20444;-82
2023/11/13 07:55:01;;;;;;;18.20;8.67;;;4.10;99.90;;;;;;4221961;28;20480;-82
2023/11/13 07:57:04;;;;;;;20.87;9.97;;;4.20;99.90;;;;;;4215665;28;20492;-82
2023/11/13 07:59:07;;;;;;;22.30;9.17;;;4.30;99.90;;;;;;4219460;28;20441;-82
2023/11/13 08:01:09;;;;;;;18.10;8.70;;;4.40;99.90;;;;;;4220472;28;20446;-82
2023/11/13 08:03:12;;;;;;;15.03;8.53;;;4.40;99.90;;;;;;4221768;28;20438;-82
2023/11/13 08:05:17;;;;;;;18.17;9.13;;;4.50;99.90;;;;;;4220607;28;20515;-82
2023/11/13 08:07:21;;;;;;;18.23;8.90;;;5.50;99.90;;;;;;4219378;28;20555;-78
2023/11/13 08:09:22;;;;;;;17.90;9.60;;;4.70;99.90;;;;;;4216888;28;20443;-78
2023/11/13 08:11:24;;;;;;;17.77;9.47;;;4.60;99.90;;;;;;4218886;28;20467;-81
2023/11/13 08:13:26;;;;;;;16.90;9.07;;;4.70;99.90;;;;;;4224490;28;20445;-82
2023/11/13 08:15:29;;;;;;;17.87;8.97;;;4.80;99.90;;;;;;4222305;28;20471;-80
2023/11/13 08:17:33;;;;;;;19.47;10.30;;;4.80;99.90;;;;;;4217465;28;20477;-82
2023/11/13 08:19:35;;;;;;;20.50;9.23;;;4.80;99.90;;;;;;4220615;28;20469;-80
2023/11/13 08:21:37;;;;;;;15.07;8.57;;;5.30;99.90;;;;;;4220342;28;20444;-77
2023/11/13 08:23:41;;;;;;;18.40;9.13;;;4.90;99.90;;;;;;4218930;28;21350;-77
2023/11/13 08:25:43;;;;;;;16.67;9.03;;;5.30;99.90;;;;;;4221100;28;20475;-78
2023/11/13 08:27:47;;;;;;;19.07;9.13;;;5.00;99.90;;;;;;4216149;28;20834;-79
2023/11/13 08:29:49;;;;;;;15.50;8.40;;;5.00;99.90;;;;;;4217202;28;20435;-82
2023/11/13 08:31:51;;;;;;;16.83;8.67;;;5.60;99.90;;;;;;4215709;28;20573;-80
2023/11/13 08:33:53;;;;;;;13.77;8.53;;;5.10;99.90;;;;;;4216996;28;20471;-80
2023/11/13 08:35:57;;;;;;;17.13;9.20;;;5.20;99.90;;;;;;4217109;28;20490;-80
2023/11/13 08:37:59;;;;;;;15.03;8.43;;;5.20;99.90;;;;;;4214472;28;20454;-79
2023/11/13 08:40:04;;;;;;;14.83;8.27;;;5.30;99.90;;;;;;4220823;28;20456;-82
2023/11/13 08:42:08;;;;;;;14.83;8.27;;;5.30;99.90;;;;;;4221082;28;20924;-82
2023/11/13 08:44:10;;;;;;;14.00;7.80;;;5.40;99.90;;;;;;4221592;28;20466;-82
2023/11/13 08:46:11;;;;;;;16.40;9.43;;;5.50;99.90;;;;;;4220451;28;20537;-82
2023/11/13 08:48:13;;;;;;;14.57;7.50;;;5.60;99.90;;;;;;4218234;28;20549;-82
2023/11/13 08:50:16;;;;;;;16.17;7.87;;;5.60;99.90;;;;;;4222578;28;20796;-82
2023/11/13 08:52:20;;;;;;;14.00;7.60;;;5.70;99.90;;;;;;4221235;28;20509;-82
2023/11/13 08:54:22;;;;;;;14.70;7.93;;;5.80;99.90;;;;;;4217404;28;20439;-82
2023/11/13 08:56:25;;;;;;;15.50;7.80;;;5.90;99.90;;;;;;4217979;28;20474;-82
2023/11/13 08:58:27;;;;;;;16.50;7.87;;;5.80;99.90;;;;;;4217363;28;20266;-82
2023/11/13 09:00:40;;;;;;;14.53;7.57;;;5.90;99.90;;;;;;4219552;28;20706;-82
2023/11/13 09:02:44;;;;;;;14.17;7.57;;;5.90;99.90;;;;;;4219224;28;20299;-82
2023/11/13 09:04:46;;;;;;;14.73;7.70;;;6.00;99.90;;;;;;4220094;28;20216;-82
2023/11/13 09:06:50;;;;;;;15.00;8.17;;;6.00;99.90;;;;;;4219089;28;20839;-82
2023/11/13 09:08:53;;;;;;;12.67;7.17;;;6.10;99.90;;;;;;4214281;28;20205;-82
2023/11/13 09:10:55;;;;;;;11.43;6.93;;;6.10;99.90;;;;;;4221721;28;20288;-82
2023/11/13 09:12:59;;;;;;;13.23;6.97;;;6.10;99.90;;;;;;4220639;28;20490;-82
2023/11/13 09:15:03;;;;;;;12.70;7.30;;;6.20;99.90;;;;;;4225613;28;20231;-82
2023/11/13 09:17:12;;;;;;;10.80;6.57;;;6.20;99.90;;;;;;4229752;28;20227;-81
2023/11/13 09:19:14;;;;;;;11.70;7.47;;;6.20;99.90;;;;;;4223365;28;20238;-81
2023/11/13 09:21:17;;;;;;;11.30;6.77;;;6.30;99.90;;;;;;4219601;28;20442;-82
2023/11/13 09:23:22;;;;;;;11.10;6.43;;;6.30;99.90;;;;;;4219697;28;20560;-82
2023/11/13 09:25:26;;;;;;;11.50;6.93;;;6.40;99.90;;;;;;4218144;28;20309;-83
2023/11/13 09:27:29;;;;;;;10.17;5.60;;;6.50;99.90;;;;;;4216627;28;21098;-82
2023/11/13 09:29:34;;;;;;;13.80;7.57;;;6.60;99.90;;;;;;4216592;28;20201;-82
2023/11/13 09:31:36;;;;;;;15.87;7.87;;;6.60;99.90;;;;;;4223883;28;20718;-82
2023/11/13 09:33:39;;;;;;;12.03;6.57;;;6.70;99.90;;;;;;4214027;28;20215;-83
2023/11/13 09:35:41;;;;;;;10.93;6.57;;;6.70;99.90;;;;;;4217956;28;20216;-83
2023/11/13 09:37:43;;;;;;;10.17;5.73;;;6.80;99.90;;;;;;4218355;28;20209;-83
2023/11/13 09:39:46;;;;;;;11.73;6.50;;;6.80;99.90;;;;;;4220394;28;20281;-82
2023/11/13 09:41:50;;;;;;;11.23;5.93;;;6.80;99.90;;;;;;4218045;28;20283;-83
2023/11/13 09:43:53;;;;;;;10.80;6.20;;;6.90;99.90;;;;;;4219708;28;20216;-83
2023/11/13 09:45:56;;;;;;;11.47;6.20;;;6.90;99.90;;;;;;4226797;28;20225;-85
2023/11/13 09:47:59;;;;;;;11.33;6.10;;;7.30;99.90;;;;;;4222324;28;20210;-85
2023/11/13 09:50:15;;;;;;;10.77;6.27;;;7.00;99.90;;;;;;4219512;28;20208;-84
2023/11/13 09:52:18;;;;;;;8.93;5.37;;;7.00;99.90;;;;;;4221655;28;20260;-85
2023/11/13 09:54:21;;;;;;;10.07;5.73;;;7.80;99.90;;;;;;4228850;28;20261;-84
2023/11/13 09:56:26;;;;;;;11.57;6.33;;;7.10;99.90;;;;;;4223667;28;20248;-85
2023/11/13 09:58:28;;;;;;;11.50;6.40;;;7.20;99.90;;;;;;4221954;28;20237;-84
2023/11/13 10:00:32;;;;;;;10.53;5.80;;;7.50;99.90;;;;;;4226103;28;20651;-85
2023/11/13 10:02:35;;;;;;;10.40;5.60;;;7.20;99.90;;;;;;4220679;28;20259;-85
2023/11/13 10:04:37;;;;;;;9.87;5.23;;;7.20;99.90;;;;;;4221016;28;20214;-85
2023/11/13 10:06:41;;;;;;;8.10;5.07;;;7.30;99.90;;;;;;4220766;28;20309;-84
2023/11/13 10:08:44;;;;;;;9.13;5.77;;;7.30;99.90;;;;;;4222468;28;20308;-84
2023/11/13 10:10:46;;;;;;;9.13;5.33;;;7.40;99.90;;;;;;4220550;28;20225;-84
2023/11/13 10:12:48;;;;;;;10.40;6.20;;;7.50;99.90;;;;;;4219618;28;20225;-82
2023/11/13 10:15:07;;;;;;;10.83;6.33;;;7.90;99.90;;;;;;4218064;28;20214;-85
2023/11/13 10:17:09;;;;;;;9.90;6.30;;;7.50;99.90;;;;;;4235289;28;20230;-83
2023/11/13 10:19:16;;;;;;;10.13;5.70;;;7.60;99.90;;;;;;4236736;28;20222;-84
2023/11/13 10:21:25;;;;;;;9.97;5.87;;;7.60;99.90;;;;;;4228885;28;20259;-84
2023/11/13 10:23:34;;;;;;;10.30;5.47;;;7.60;99.90;;;;;;4225304;28;20201;-84
2023/11/13 10:25:46;;;;;;;8.90;5.30;;;7.80;99.90;;;;;;4224419;28;20233;-79
2023/11/13 10:27:59;;;;;;;10.27;5.67;;;7.70;99.90;;;;;;4222253;28;20208;-84
2023/11/13 10:30:06;;;;;;;10.93;5.53;;;7.70;99.90;;;;;;4229427;28;20835;-79
2023/11/13 10:32:08;;;;;;;10.77;5.73;;;7.70;99.90;;;;;;4225784;28;20249;-80
2023/11/13 10:34:11;;;;;;;10.77;5.40;;;7.70;99.90;;;;;;4224466;28;20207;-80
2023/11/13 10:36:17;;;;;;;8.53;5.20;;;7.70;99.90;;;;;;4226015;28;21275;-78
2023/11/13 10:38:20;;;;;;;9.70;5.43;;;7.80;99.90;;;;;;4226218;28;20209;-83
2023/11/13 10:40:27;;;;;;;8.63;5.50;;;7.70;99.90;;;;;;4218429;27;20202;-82
2023/11/13 10:42:31;;;;;;;8.03;5.07;;;7.80;99.90;;;;;;4224042;28;20211;-84
2023/11/13 10:44:37;;;;;;;9.50;5.43;;;7.70;99.90;;;;;;4225626;28;20210;-84